Time;durP1;ratioP1;P1;durP2;ratioP2;P2;SDS_P1;SDS_P2;PMS_P1;PMS_P2;Temp;Humidity;BMP_temperature;BMP_pressure;BME280_temperature;BME280_humidity;BME280_pressure;Samples;Min_cycle;Max_cycle;Signal;HPM_P1;HPM_P2
2020/12/09 00:00:08;;;;;;;23.03;16.07;;;2.30;96.90;;;;;;4862563;29;20041;-86
2020/12/09 00:02:34;;;;;;;24.80;15.33;;;2.30;96.90;;;;;;4863645;29;20053;-86
2020/12/09 00:05:03;;;;;;;21.10;13.50;;;2.30;96.90;;;;;;4847478;29;20033;-87
2020/12/09 00:07:34;;;;;;;21.40;13.50;;;2.20;97.00;;;;;;4861469;29;20044;-86
2020/12/09 00:10:01;;;;;;;14.23;9.97;;;2.20;96.90;;;;;;4847625;29;20044;-86
2020/12/09 00:12:30;;;;;;;19.30;13.17;;;2.10;96.90;;;;;;4862244;29;20040;-86
2020/12/09 00:15:04;;;;;;;20.30;12.10;;;2.10;97.00;;;;;;4880257;29;20425;-86
2020/12/09 00:17:30;;;;;;;23.33;15.37;;;2.10;97.00;;;;;;4864618;29;20063;-87
2020/12/09 00:19:57;;;;;;;25.20;15.37;;;2.10;96.90;;;;;;4844128;29;20048;-86
2020/12/09 00:22:24;;;;;;;23.30;14.77;;;2.10;96.90;;;;;;4878117;29;20040;-81
2020/12/09 00:24:53;;;;;;;22.50;15.67;;;2.10;96.90;;;;;;4874557;29;20041;-81
2020/12/09 00:27:20;;;;;;;18.13;12.93;;;2.00;96.90;;;;;;4862212;29;20047;-82
2020/12/09 00:29:47;;;;;;;20.77;13.23;;;2.00;96.90;;;;;;4859688;29;20053;-82
2020/12/09 00:32:13;;;;;;;19.87;13.53;;;2.00;97.20;;;;;;4863991;29;20040;-87
2020/12/09 00:34:40;;;;;;;26.07;17.17;;;2.00;97.00;;;;;;4861320;29;20040;-87
2020/12/09 00:37:06;;;;;;;20.60;11.97;;;1.90;97.00;;;;;;4863042;29;20492;-87
2020/12/09 00:39:33;;;;;;;31.30;19.17;;;1.90;96.90;;;;;;4841507;29;20064;-82
2020/12/09 00:42:00;;;;;;;30.23;18.07;;;1.90;96.90;;;;;;4890059;29;20060;-81
2020/12/09 00:44:28;;;;;;;28.83;17.33;;;1.90;96.90;;;;;;4873284;29;20049;-81
2020/12/09 00:46:55;;;;;;;25.63;16.07;;;1.80;96.90;;;;;;4854496;29;20044;-86
2020/12/09 00:49:22;;;;;;;25.40;16.30;;;1.80;96.90;;;;;;4859794;29;21599;-86
2020/12/09 00:51:48;;;;;;;27.03;15.97;;;1.80;96.90;;;;;;4861417;29;20033;-81
2020/12/09 00:54:16;;;;;;;26.07;15.97;;;1.80;96.90;;;;;;4859829;29;20485;-82
2020/12/09 00:56:44;;;;;;;25.40;15.40;;;1.70;96.90;;;;;;4861468;29;20063;-82
2020/12/09 00:59:14;;;;;;;20.50;12.23;;;1.70;96.90;;;;;;4895051;29;20052;-81
2020/12/09 01:01:41;;;;;;;28.30;16.97;;;1.70;96.90;;;;;;4874789;29;20041;-81
2020/12/09 01:04:14;;;;;;;28.63;16.67;;;1.70;97.00;;;;;;4865111;29;20045;-82
2020/12/09 01:06:40;;;;;;;29.17;15.67;;;1.70;97.00;;;;;;4847627;29;20495;-82
2020/12/09 01:09:07;;;;;;;29.60;17.63;;;1.70;97.00;;;;;;4831717;29;20049;-81
2020/12/09 01:11:33;;;;;;;34.13;19.33;;;1.70;97.00;;;;;;4858161;29;20764;-81
2020/12/09 01:14:00;;;;;;;33.67;19.03;;;1.70;96.90;;;;;;4862112;29;20040;-81
2020/12/09 01:16:27;;;;;;;29.57;17.13;;;1.60;96.90;;;;;;4847318;29;20061;-82
2020/12/09 01:18:53;;;;;;;28.33;16.17;;;1.60;96.90;;;;;;4878729;29;20057;-82
2020/12/09 01:21:30;;;;;;;27.63;15.63;;;1.50;96.80;;;;;;4865201;29;20064;-81
2020/12/09 01:23:57;;;;;;;30.50;14.93;;;1.50;96.90;;;;;;4864746;29;20041;-82
2020/12/09 01:26:23;;;;;;;25.17;14.00;;;1.50;96.90;;;;;;4867678;29;20420;-82
2020/12/09 01:28:50;;;;;;;26.57;15.07;;;1.50;97.00;;;;;;4856643;29;20710;-81
2020/12/09 01:31:21;;;;;;;32.13;18.87;;;1.50;97.00;;;;;;4865695;29;20756;-82
2020/12/09 01:33:48;;;;;;;32.77;16.90;;;1.50;97.00;;;;;;4887491;29;20048;-82
2020/12/09 01:36:22;;;;;;;30.83;18.13;;;1.50;97.00;;;;;;4857474;29;20547;-82
2020/12/09 01:38:50;;;;;;;29.40;16.67;;;1.50;97.00;;;;;;4861450;29;20118;-82
2020/12/09 01:41:21;;;;;;;28.67;16.37;;;1.50;97.00;;;;;;4860721;29;20032;-82
2020/12/09 01:43:48;;;;;;;34.30;18.90;;;1.50;96.90;;;;;;4875777;29;20048;-82
2020/12/09 01:46:16;;;;;;;31.13;18.10;;;1.50;96.90;;;;;;4859250;29;20032;-82
2020/12/09 01:48:43;;;;;;;27.67;16.83;;;1.50;96.90;;;;;;4878096;29;20033;-82
2020/12/09 01:51:13;;;;;;;29.80;17.33;;;1.40;96.90;;;;;;4858781;29;20041;-82
2020/12/09 01:53:41;;;;;;;37.40;20.63;;;1.40;96.90;;;;;;4877666;29;20041;-82
2020/12/09 01:56:08;;;;;;;37.10;20.47;;;1.40;96.90;;;;;;4890278;29;20041;-82
2020/12/09 01:58:35;;;;;;;26.27;14.33;;;1.40;96.90;;;;;;4873433;29;20037;-82
2020/12/09 02:01:02;;;;;;;27.10;14.03;;;1.40;96.90;;;;;;4873933;29;20037;-82
2020/12/09 02:03:29;;;;;;;28.17;16.27;;;1.40;97.00;;;;;;4870552;29;20048;-82
2020/12/09 02:05:56;;;;;;;30.57;16.87;;;1.40;97.10;;;;;;4850178;29;20828;-82
2020/12/09 02:08:22;;;;;;;26.57;15.43;;;1.40;97.10;;;;;;4860396;29;20044;-82
2020/12/09 02:10:59;;;;;;;32.63;17.63;;;1.40;97.10;;;;;;4869719;29;20040;-82
2020/12/09 02:13:29;;;;;;;33.13;18.60;;;1.40;97.10;;;;;;4866771;29;20051;-82
2020/12/09 02:16:00;;;;;;;25.33;15.03;;;1.40;97.00;;;;;;4848650;29;20049;-82
2020/12/09 02:18:27;;;;;;;27.90;16.77;;;1.40;97.00;;;;;;4857292;29;20060;-82
2020/12/09 02:20:54;;;;;;;29.23;16.70;;;1.40;96.90;;;;;;4886998;29;20492;-82
2020/12/09 02:23:21;;;;;;;35.13;19.00;;;1.30;96.90;;;;;;4872717;29;20396;-82
2020/12/09 02:25:48;;;;;;;26.10;14.70;;;1.30;96.90;;;;;;4882049;29;20052;-82
2020/12/09 02:28:14;;;;;;;28.63;16.10;;;1.30;96.90;;;;;;4884337;29;20072;-83
2020/12/09 02:30:41;;;;;;;32.00;18.03;;;1.30;96.90;;;;;;4856467;29;20036;-83
2020/12/09 02:33:07;;;;;;;30.03;16.87;;;1.20;96.90;;;;;;4875102;29;20047;-82
2020/12/09 02:35:34;;;;;;;29.23;16.70;;;1.20;97.00;;;;;;4859466;29;20410;-83
2020/12/09 02:38:02;;;;;;;25.73;14.47;;;1.20;96.90;;;;;;4854797;29;20037;-82
2020/12/09 02:40:30;;;;;;;32.67;18.10;;;1.10;96.90;;;;;;4852564;29;20404;-83
2020/12/09 02:42:56;;;;;;;32.93;18.27;;;1.10;97.00;;;;;;4858808;29;20061;-82
2020/12/09 02:45:23;;;;;;;33.60;18.53;;;1.10;97.00;;;;;;4874010;29;20048;-82
2020/12/09 02:47:50;;;;;;;31.80;17.97;;;1.10;96.90;;;;;;4859483;29;20388;-82
2020/12/09 02:50:16;;;;;;;32.27;18.03;;;1.00;96.90;;;;;;4886172;29;20103;-83
2020/12/09 02:52:43;;;;;;;29.67;16.63;;;1.00;96.90;;;;;;4860372;29;20052;-83
2020/12/09 02:55:09;;;;;;;31.80;17.50;;;1.00;96.90;;;;;;4870831;29;20053;-83
2020/12/09 02:57:36;;;;;;;36.53;19.43;;;1.00;96.90;;;;;;4858664;29;20076;-83
2020/12/09 03:00:06;;;;;;;34.13;18.83;;;0.90;96.90;;;;;;4884553;29;20052;-82
2020/12/09 03:02:35;;;;;;;33.77;19.07;;;0.90;96.90;;;;;;4881259;29;20052;-82
2020/12/09 03:05:02;;;;;;;36.67;19.33;;;0.90;96.90;;;;;;4896644;29;20048;-82
2020/12/09 03:07:29;;;;;;;37.97;19.80;;;0.90;97.00;;;;;;4882256;29;20071;-82
2020/12/09 03:09:55;;;;;;;42.00;20.83;;;1.00;97.40;;;;;;4849853;29;20993;-89
2020/12/09 03:12:22;;;;;;;42.03;21.93;;;1.10;97.30;;;;;;4851972;29;20048;-89
2020/12/09 03:14:48;;;;;;;49.77;25.13;;;1.20;97.30;;;;;;4871428;29;20058;-89
2020/12/09 03:17:15;;;;;;;47.60;22.77;;;1.30;97.30;;;;;;4866108;29;20067;-90
2020/12/09 03:19:42;;;;;;;45.07;21.63;;;1.40;97.20;;;;;;4865792;29;20040;-89
2020/12/09 03:22:09;;;;;;;49.27;22.70;;;1.40;97.20;;;;;;4847637;29;20049;-89
2020/12/09 03:24:36;;;;;;;43.73;23.07;;;1.60;97.20;;;;;;4872942;29;20052;-89
2020/12/09 03:27:03;;;;;;;52.13;25.40;;;1.60;97.40;;;;;;4879022;29;20036;-83
2020/12/09 03:29:29;;;;;;;50.30;25.87;;;1.70;97.10;;;;;;4896505;29;20041;-83
2020/12/09 03:31:56;;;;;;;55.23;26.23;;;1.80;97.10;;;;;;4882271;29;20045;-83
2020/12/09 03:34:22;;;;;;;48.73;25.03;;;1.80;97.10;;;;;;4883612;29;20045;-82
2020/12/09 03:36:49;;;;;;;51.17;24.30;;;1.80;97.00;;;;;;4895686;29;20048;-90
2020/12/09 03:39:15;;;;;;;46.77;24.17;;;1.90;97.00;;;;;;4866180;29;20037;-83
2020/12/09 03:41:42;;;;;;;48.83;24.00;;;1.90;97.30;;;;;;4882209;29;20049;-83
2020/12/09 03:44:11;;;;;;;52.47;24.17;;;2.00;97.10;;;;;;4882195;29;20483;-83
2020/12/09 03:46:38;;;;;;;49.27;23.47;;;2.00;97.10;;;;;;4879377;29;20538;-82
2020/12/09 03:49:04;;;;;;;46.47;23.07;;;2.10;97.10;;;;;;4877920;29;20033;-82
2020/12/09 03:51:31;;;;;;;53.57;25.00;;;2.10;97.10;;;;;;4877463;29;20037;-83
2020/12/09 03:53:58;;;;;;;43.43;22.53;;;2.20;97.40;;;;;;4868687;29;20126;-82
2020/12/09 03:56:24;;;;;;;60.50;26.13;;;2.20;97.10;;;;;;4882892;29;20052;-83
2020/12/09 03:58:51;;;;;;;79.30;26.27;;;2.20;97.10;;;;;;4879982;29;20048;-83
2020/12/09 04:01:18;;;;;;;52.03;20.87;;;2.30;97.10;;;;;;4897174;29;20883;-82
2020/12/09 04:03:45;;;;;;;56.27;23.03;;;2.40;97.10;;;;;;4867412;29;20051;-88
2020/12/09 04:06:11;;;;;;;59.33;26.57;;;2.40;97.10;;;;;;4879050;29;20036;-88
2020/12/09 04:08:38;;;;;;;65.33;24.73;;;2.50;97.10;;;;;;4860292;29;20579;-88
2020/12/09 04:11:05;;;;;;;115.13;29.10;;;2.50;97.10;;;;;;4866086;29;20045;-88
2020/12/09 04:13:31;;;;;;;89.03;29.27;;;2.60;97.10;;;;;;4852806;29;20045;-89
2020/12/09 04:15:58;;;;;;;107.30;26.17;;;2.60;97.10;;;;;;4854339;29;20048;-88
2020/12/09 04:18:25;;;;;;;198.27;30.43;;;2.60;97.10;;;;;;4842720;29;20066;-88
2020/12/09 04:20:51;;;;;;;117.83;29.50;;;2.70;97.10;;;;;;4835081;29;20045;-88
2020/12/09 04:23:19;;;;;;;87.37;29.03;;;2.70;97.10;;;;;;4844474;29;20073;-88
2020/12/09 04:25:45;;;;;;;106.67;26.90;;;2.80;97.10;;;;;;4867884;29;20043;-86
2020/12/09 04:28:12;;;;;;;67.07;23.93;;;2.80;97.10;;;;;;4833135;29;20579;-88
2020/12/09 04:30:38;;;;;;;136.67;30.53;;;2.80;97.00;;;;;;4874452;29;20527;-87
2020/12/09 04:33:05;;;;;;;164.17;29.17;;;2.90;97.00;;;;;;4837923;29;20045;-87
2020/12/09 04:35:32;;;;;;;262.80;33.70;;;2.90;97.00;;;;;;4863224;29;20040;-87
2020/12/09 04:37:58;;;;;;;172.97;30.73;;;3.00;97.00;;;;;;4885492;29;20060;-87
2020/12/09 04:40:26;;;;;;;278.93;33.20;;;3.00;97.00;;;;;;4859069;29;20064;-87
2020/12/09 04:42:58;;;;;;;52.77;21.50;;;3.00;97.00;;;;;;4862832;29;20041;-87
2020/12/09 04:45:27;;;;;;;129.60;27.02;;;3.00;97.00;;;;;;4891342;29;20052;-87
2020/12/09 04:48:10;;;;;;;236.67;32.63;;;3.00;97.00;;;;;;4875134;29;20040;-87
2020/12/09 04:51:14;;;;;;;79.93;26.30;;;3.10;97.00;;;;;;4885310;29;20048;-87
2020/12/09 04:53:42;;;;;;;253.00;30.23;;;3.10;97.00;;;;;;4875740;29;20052;-87
2020/12/09 04:56:10;;;;;;;110.30;26.87;;;3.10;97.00;;;;;;4878061;29;20045;-88
2020/12/09 04:58:41;;;;;;;103.70;32.57;;;3.20;97.00;;;;;;4848103;29;20041;-87
2020/12/09 05:01:13;;;;;;;88.75;24.67;;;3.10;97.00;;;;;;4854872;29;20046;-87
2020/12/09 05:03:46;;;;;;;200.23;36.73;;;3.20;97.00;;;;;;4864080;29;20047;-87
2020/12/09 05:06:14;;;;;;;211.65;35.97;;;3.10;96.90;;;;;;4878928;29;20048;-87
2020/12/09 05:08:51;;;;;;;190.10;37.07;;;3.20;97.20;;;;;;4859763;29;20047;-87
2020/12/09 05:11:26;;;;;;;78.27;29.83;;;3.20;97.00;;;;;;4862455;29;20071;-87
2020/12/09 05:13:54;;;;;;;111.10;25.83;;;3.20;97.00;;;;;;4873193;29;20036;-87
2020/12/09 05:16:23;;;;;;;264.57;36.53;;;3.20;97.00;;;;;;4831780;29;20052;-87
2020/12/09 05:19:02;;;;;;;126.60;28.80;;;3.30;97.00;;;;;;4859489;29;20053;-87
2020/12/09 05:21:31;;;;;;;137.57;34.03;;;3.20;97.00;;;;;;4874153;29;20048;-88
2020/12/09 05:24:00;;;;;;;124.53;31.53;;;3.30;97.00;;;;;;4864760;29;20874;-88
2020/12/09 05:26:31;;;;;;;92.90;25.27;;;3.30;97.00;;;;;;4841736;29;20041;-87
2020/12/09 05:29:10;;;;;;;212.13;30.15;;;3.40;97.10;;;;;;4875530;29;20048;-87
2020/12/09 05:31:39;;;;;;;92.67;27.03;;;3.30;97.00;;;;;;4873024;29;20049;-86
2020/12/09 05:34:18;;;;;;;78.30;25.73;;;3.40;97.00;;;;;;4878276;29;20063;-87
2020/12/09 05:36:48;;;;;;;96.60;32.63;;;3.50;97.00;;;;;;4861261;29;20048;-87
2020/12/09 05:39:18;;;;;;;76.27;27.10;;;3.50;96.90;;;;;;4875020;29;20043;-88
2020/12/09 05:41:44;;;;;;;106.60;34.87;;;3.40;96.90;;;;;;4862353;29;20040;-90
2020/12/09 05:44:11;;;;;;;110.10;36.63;;;3.40;96.90;;;;;;4864410;29;20036;-84
2020/12/09 05:46:57;;;;;;;109.33;37.27;;;3.40;96.90;;;;;;4874241;29;20052;-85
2020/12/09 05:49:27;;;;;;;114.30;39.53;;;3.40;96.90;;;;;;4887589;29;20049;-86
2020/12/09 05:52:10;;;;;;;126.70;42.67;;;3.40;96.90;;;;;;4856875;29;20039;-84
2020/12/09 05:54:39;;;;;;;115.97;40.38;;;3.40;96.90;;;;;;4876925;29;20028;-84
2020/12/09 05:57:08;;;;;;;104.80;36.80;;;3.40;96.90;;;;;;4859938;29;20041;-86
2020/12/09 05:59:53;;;;;;;96.93;36.17;;;3.40;96.90;;;;;;4887043;29;20035;-87
2020/12/09 06:02:21;;;;;;;111.90;39.00;;;3.40;96.90;;;;;;4874827;29;20040;-88
2020/12/09 06:04:57;;;;;;;119.43;43.17;;;3.40;96.90;;;;;;4879407;29;20037;-82
2020/12/09 06:07:26;;;;;;;109.00;40.70;;;3.40;96.90;;;;;;4881092;29;20040;-82
2020/12/09 06:10:11;;;;;;;86.53;32.77;;;3.40;96.90;;;;;;4857875;29;20040;-82
2020/12/09 06:12:52;;;;;;;98.83;39.13;;;3.40;96.90;;;;;;4858876;29;20036;-82
2020/12/09 06:15:25;;;;;;;114.57;43.53;;;3.40;96.90;;;;;;4877087;29;20041;-81
2020/12/09 06:18:07;;;;;;;102.20;39.97;;;3.40;96.90;;;;;;4875193;29;20071;-82
2020/12/09 06:20:35;;;;;;;103.43;39.07;;;3.40;96.90;;;;;;4885240;29;20048;-82
2020/12/09 06:23:15;;;;;;;111.60;43.03;;;3.40;96.90;;;;;;4863963;29;20036;-82
2020/12/09 06:25:43;;;;;;;124.00;44.90;;;3.40;97.20;;;;;;4873508;29;20063;-82
2020/12/09 06:28:11;;;;;;;122.53;45.87;;;3.40;96.90;;;;;;4889585;29;20040;-82
2020/12/09 06:30:39;;;;;;;103.17;40.93;;;3.30;97.10;;;;;;4875815;29;20041;-82
2020/12/09 06:33:06;;;;;;;123.33;43.80;;;3.40;96.90;;;;;;4858548;29;20871;-82
2020/12/09 06:35:33;;;;;;;99.23;38.87;;;3.30;96.90;;;;;;4874955;29;20044;-82
2020/12/09 06:38:09;;;;;;;122.63;46.07;;;3.30;96.90;;;;;;4889712;29;20492;-82
2020/12/09 06:40:37;;;;;;;104.07;43.13;;;3.40;96.90;;;;;;4888852;29;20396;-81
2020/12/09 06:43:11;;;;;;;123.77;48.03;;;3.30;96.90;;;;;;4862003;29;20045;-82
2020/12/09 06:46:11;;;;;;;101.07;41.80;;;3.30;96.90;;;;;;4872855;29;20059;-82
2020/12/09 06:48:40;;;;;;;117.03;42.73;;;3.30;96.90;;;;;;4873600;29;20044;-81
2020/12/09 06:51:35;;;;;;;106.20;39.80;;;3.40;96.90;;;;;;4845707;29;20408;-81
2020/12/09 06:54:17;;;;;;;109.43;42.37;;;3.30;96.90;;;;;;4880057;29;20056;-83
2020/12/09 06:57:21;;;;;;;90.97;36.90;;;3.30;96.90;;;;;;4841846;29;20037;-87
2020/12/09 06:59:49;;;;;;;89.33;34.73;;;3.30;96.90;;;;;;4867029;29;20480;-82
2020/12/09 07:02:29;;;;;;;90.23;34.17;;;3.30;96.90;;;;;;4889704;29;20035;-83
2020/12/09 07:04:56;;;;;;;106.20;41.07;;;3.30;96.90;;;;;;4873981;29;20809;-90
2020/12/09 07:07:42;;;;;;;116.83;42.93;;;3.30;96.90;;;;;;4856333;29;20044;-82
2020/12/09 07:10:18;;;;;;;108.43;41.77;;;3.30;96.90;;;;;;4874637;29;20052;-81
2020/12/09 07:12:48;;;;;;;123.73;46.27;;;3.40;97.00;;;;;;4868876;29;20041;-86
2020/12/09 07:15:18;;;;;;;112.83;44.13;;;3.40;96.90;;;;;;4824692;29;20421;-89
2020/12/09 07:17:45;;;;;;;100.47;37.77;;;3.40;96.90;;;;;;4876978;29;20033;-90
2020/12/09 07:20:12;;;;;;;93.97;36.47;;;3.40;96.90;;;;;;4858532;29;20037;-88
2020/12/09 07:22:39;;;;;;;113.70;44.63;;;3.40;96.90;;;;;;4847868;29;20047;-90
2020/12/09 07:25:06;;;;;;;132.23;46.40;;;3.40;96.90;;;;;;4845948;29;20056;-81
2020/12/09 07:27:35;;;;;;;120.57;44.13;;;3.40;96.90;;;;;;4860653;29;20036;-82
2020/12/09 07:30:07;;;;;;;136.90;50.80;;;3.40;96.90;;;;;;4837027;29;20379;-89
2020/12/09 07:32:35;;;;;;;94.15;36.80;;;3.40;96.90;;;;;;4878088;29;20048;-88
2020/12/09 07:35:11;;;;;;;119.93;43.03;;;3.40;96.90;;;;;;4843176;29;20049;-88
2020/12/09 07:37:43;;;;;;;128.97;46.07;;;3.40;96.90;;;;;;4890681;29;20056;-82
2020/12/09 07:40:37;;;;;;;100.72;38.08;;;3.50;96.90;;;;;;4855741;29;20041;-82
2020/12/09 07:43:07;;;;;;;113.93;41.65;;;3.50;96.80;;;;;;4861469;29;20040;-82
2020/12/09 07:45:43;;;;;;;124.10;43.70;;;3.40;96.80;;;;;;4858342;29;20515;-83
2020/12/09 07:48:17;;;;;;;122.27;44.17;;;3.50;96.90;;;;;;4873449;29;20045;-83
2020/12/09 07:50:56;;;;;;;114.90;42.33;;;3.50;96.90;;;;;;4861635;29;20040;-82
2020/12/09 07:53:25;;;;;;;148.30;48.40;;;3.50;96.80;;;;;;4872152;29;20050;-82
2020/12/09 07:55:52;;;;;;;169.57;50.67;;;3.50;96.80;;;;;;4860477;29;20044;-82
2020/12/09 07:58:19;;;;;;;147.30;45.43;;;3.60;96.80;;;;;;4862465;29;20073;-80
2020/12/09 08:00:50;;;;;;;146.13;47.17;;;3.60;96.80;;;;;;4854460;29;20057;-82
2020/12/09 08:03:18;;;;;;;209.00;41.27;;;3.60;96.80;;;;;;4862264;29;20528;-82
2020/12/09 08:05:45;;;;;;;197.70;43.90;;;3.60;96.80;;;;;;4878354;29;20036;-81
2020/12/09 08:08:15;;;;;;;270.10;47.37;;;3.60;96.70;;;;;;4859706;29;20047;-81
2020/12/09 08:10:44;;;;;;;190.53;43.17;;;3.50;96.60;;;;;;4879386;29;20041;-82
2020/12/09 08:13:14;;;;;;;113.30;36.50;;;3.50;96.60;;;;;;4849024;29;20056;-83
2020/12/09 08:15:57;;;;;;;220.23;42.47;;;3.40;96.60;;;;;;4878095;29;20048;-80
2020/12/09 08:18:23;;;;;;;;;;;3.40;96.60;;;;;;4862780;29;20064;-82
2020/12/09 08:20:52;;;;;;;136.07;36.20;;;3.30;96.60;;;;;;4860992;29;19923;-82
2020/12/09 08:23:19;;;;;;;123.20;36.80;;;3.30;96.70;;;;;;4849557;29;20037;-81
2020/12/09 08:25:53;;;;;;;150.93;38.03;;;3.30;96.70;;;;;;4864718;29;20044;-82
2020/12/09 08:28:25;;;;;;;113.27;40.17;;;3.30;96.60;;;;;;4861769;29;20064;-81
2020/12/09 08:30:53;;;;;;;122.82;39.17;;;3.20;96.50;;;;;;4845488;29;20044;-81
2020/12/09 08:33:27;;;;;;;146.97;37.20;;;3.20;96.50;;;;;;4872630;29;20517;-81
2020/12/09 08:35:59;;;;;;;139.10;38.70;;;3.20;96.50;;;;;;4862034;29;20710;-83
2020/12/09 08:38:53;;;;;;;72.63;31.20;;;3.10;96.50;;;;;;4860408;29;20040;-83
2020/12/09 08:41:30;;;;;;;148.53;39.23;;;3.10;96.40;;;;;;4856428;29;20619;-83
2020/12/09 08:44:05;;;;;;;154.70;40.40;;;3.00;96.30;;;;;;4881112;29;20044;-82
2020/12/09 08:46:32;;;;;;;153.17;37.77;;;2.90;96.40;;;;;;4866470;29;20048;-83
2020/12/09 08:48:59;;;;;;;142.23;38.50;;;2.90;96.40;;;;;;4887148;29;20066;-82
2020/12/09 08:51:28;;;;;;;128.90;36.87;;;2.90;96.40;;;;;;4849530;29;20056;-83
2020/12/09 08:53:55;;;;;;;144.10;36.63;;;2.80;96.30;;;;;;4860909;29;20056;-82
2020/12/09 08:56:25;;;;;;;100.97;36.27;;;2.90;96.40;;;;;;4855321;29;20041;-83
2020/12/09 08:58:52;;;;;;;83.97;35.00;;;2.80;96.30;;;;;;4875528;29;20048;-83
2020/12/09 09:01:19;;;;;;;88.63;33.43;;;2.80;96.30;;;;;;4877833;29;20305;-83
2020/12/09 09:03:47;;;;;;;97.90;34.83;;;2.80;96.30;;;;;;4847318;29;20049;-82
2020/12/09 09:06:14;;;;;;;174.20;36.30;;;2.80;96.30;;;;;;4873236;29;20052;-83
2020/12/09 09:08:40;;;;;;;109.93;33.90;;;2.80;96.30;;;;;;4859938;29;20049;-83
2020/12/09 09:11:09;;;;;;;158.20;34.97;;;2.80;96.20;;;;;;4871841;29;20032;-82
2020/12/09 09:13:36;;;;;;;98.13;32.43;;;2.80;96.20;;;;;;4863983;29;20036;-83
2020/12/09 09:16:09;;;;;;;96.10;35.30;;;2.80;96.20;;;;;;4880055;29;20041;-83
2020/12/09 09:18:36;;;;;;;83.47;34.10;;;2.80;96.20;;;;;;4878937;29;20064;-83
2020/12/09 09:21:03;;;;;;;85.20;33.27;;;2.80;96.20;;;;;;4862621;29;20061;-82
2020/12/09 09:23:30;;;;;;;123.37;37.50;;;2.90;96.20;;;;;;4863053;29;20053;-82
2020/12/09 09:25:56;;;;;;;97.63;37.13;;;2.80;96.10;;;;;;4864301;29;20057;-82
2020/12/09 09:28:23;;;;;;;103.13;39.27;;;2.90;96.00;;;;;;4865753;29;20048;-82
2020/12/09 09:30:50;;;;;;;138.30;39.03;;;2.80;96.00;;;;;;4879139;29;20045;-82
2020/12/09 09:33:16;;;;;;;135.20;37.40;;;2.80;96.00;;;;;;4882051;29;20041;-83
2020/12/09 09:35:43;;;;;;;129.70;36.23;;;2.70;96.00;;;;;;4880137;29;20127;-83
2020/12/09 09:38:12;;;;;;;86.73;32.40;;;2.80;96.30;;;;;;4850467;29;20060;-83
2020/12/09 09:40:41;;;;;;;137.33;39.27;;;2.80;96.00;;;;;;4878498;29;20044;-83
2020/12/09 09:43:07;;;;;;;163.17;40.60;;;2.70;96.00;;;;;;4870430;29;20052;-81
2020/12/09 09:45:34;;;;;;;136.30;39.37;;;2.70;95.90;;;;;;4881621;29;20044;-83
2020/12/09 09:48:00;;;;;;;108.07;37.10;;;2.70;95.90;;;;;;4848686;29;20052;-83
2020/12/09 09:50:27;;;;;;;97.23;37.97;;;2.70;95.90;;;;;;4847577;29;20040;-83
2020/12/09 09:52:56;;;;;;;80.47;33.60;;;2.70;95.90;;;;;;4878656;29;20047;-83
2020/12/09 09:55:23;;;;;;;102.93;35.47;;;2.70;95.90;;;;;;4871345;29;20033;-83
2020/12/09 09:57:53;;;;;;;84.17;37.47;;;2.70;95.90;;;;;;4884492;29;20053;-84
2020/12/09 10:00:22;;;;;;;95.37;38.63;;;2.60;95.90;;;;;;4881794;29;20052;-83
2020/12/09 10:02:50;;;;;;;81.27;36.53;;;2.70;95.90;;;;;;4853253;29;20052;-84
2020/12/09 10:05:19;;;;;;;140.40;38.37;;;2.70;95.90;;;;;;4867251;29;20045;-83
2020/12/09 10:07:46;;;;;;;88.93;39.00;;;2.70;95.90;;;;;;4847542;29;20052;-83
2020/12/09 10:10:15;;;;;;;86.53;37.30;;;2.70;95.90;;;;;;4861438;29;20045;-83
2020/12/09 10:12:42;;;;;;;102.77;37.40;;;2.70;95.80;;;;;;4857970;29;20041;-83
2020/12/09 10:15:08;;;;;;;86.30;36.70;;;2.80;95.80;;;;;;4859621;29;20056;-82
2020/12/09 10:17:35;;;;;;;168.60;46.90;;;2.80;95.80;;;;;;4859453;29;20052;-82
2020/12/09 10:20:02;;;;;;;97.87;39.37;;;2.80;95.70;;;;;;4859215;29;20048;-84
2020/12/09 10:22:29;;;;;;;145.67;44.63;;;2.80;95.70;;;;;;4875926;29;20956;-84
2020/12/09 10:24:56;;;;;;;88.47;39.53;;;2.80;95.50;;;;;;4854644;29;20061;-81
2020/12/09 10:27:22;;;;;;;133.23;39.60;;;2.80;95.50;;;;;;4862121;29;20401;-81
2020/12/09 10:29:49;;;;;;;71.43;32.67;;;2.70;95.50;;;;;;4860569;29;20401;-84
2020/12/09 10:32:15;;;;;;;118.80;35.23;;;2.80;95.60;;;;;;4844631;29;20048;-82
2020/12/09 10:34:42;;;;;;;113.63;34.60;;;2.80;95.60;;;;;;4831815;29;20060;-83
2020/12/09 10:37:09;;;;;;;96.83;35.70;;;2.80;95.50;;;;;;4844551;29;20037;-82
2020/12/09 10:39:36;;;;;;;98.70;37.43;;;2.80;95.50;;;;;;4860028;29;20504;-82
2020/12/09 10:42:03;;;;;;;85.53;36.80;;;2.70;95.40;;;;;;4860591;29;20044;-85
2020/12/09 10:44:29;;;;;;;135.50;38.33;;;2.70;95.40;;;;;;4880229;29;20044;-85
2020/12/09 10:46:56;;;;;;;191.87;38.57;;;2.80;95.40;;;;;;4877025;29;20041;-84
2020/12/09 10:49:22;;;;;;;287.90;39.73;;;2.70;95.30;;;;;;4854306;29;20055;-84
2020/12/09 10:51:51;;;;;;;130.33;37.27;;;2.60;95.10;;;;;;4865938;29;20045;-85
2020/12/09 10:54:21;;;;;;;99.93;37.85;;;2.60;95.20;;;;;;4852309;29;20040;-85
2020/12/09 10:56:48;;;;;;;111.50;38.83;;;2.60;95.30;;;;;;4829020;29;20047;-85
2020/12/09 10:59:17;;;;;;;86.87;36.40;;;2.60;95.30;;;;;;4852249;29;20466;-85
2020/12/09 11:01:45;;;;;;;143.47;42.83;;;2.60;95.30;;;;;;4846105;29;20052;-85
2020/12/09 11:04:12;;;;;;;86.53;35.70;;;2.60;95.40;;;;;;4859639;29;20421;-83
2020/12/09 11:06:39;;;;;;;100.63;36.13;;;2.60;95.30;;;;;;4845306;29;20041;-83
2020/12/09 11:09:21;;;;;;;103.27;37.03;;;2.60;95.30;;;;;;4853595;29;20060;-82
2020/12/09 11:11:48;;;;;;;118.43;37.00;;;2.60;95.30;;;;;;4844436;29;20041;-84
2020/12/09 11:14:16;;;;;;;134.17;44.27;;;2.70;95.40;;;;;;4864494;29;20499;-84
2020/12/09 11:16:42;;;;;;;109.17;43.30;;;2.60;95.20;;;;;;4845400;29;20060;-83
2020/12/09 11:19:09;;;;;;;90.47;36.37;;;2.60;95.20;;;;;;4858659;29;20041;-83
2020/12/09 11:21:38;;;;;;;61.67;30.40;;;2.60;95.20;;;;;;4844067;29;20053;-84
2020/12/09 11:24:05;;;;;;;89.33;37.40;;;2.50;95.20;;;;;;4868621;29;20045;-84
2020/12/09 11:26:32;;;;;;;90.63;37.40;;;2.50;95.30;;;;;;4841570;29;20057;-85
2020/12/09 11:28:58;;;;;;;114.03;40.20;;;2.50;95.30;;;;;;4880007;29;20041;-84
2020/12/09 11:31:25;;;;;;;180.03;43.23;;;2.60;95.30;;;;;;4872104;29;20045;-83
2020/12/09 11:33:52;;;;;;;379.50;54.83;;;2.50;95.20;;;;;;4858388;29;20041;-84
2020/12/09 11:36:23;;;;;;;184.17;42.63;;;2.50;95.20;;;;;;4869780;29;20029;-83
2020/12/09 11:38:55;;;;;;;219.75;45.65;;;2.40;95.00;;;;;;4876388;29;20060;-84
2020/12/09 11:41:26;;;;;;;154.30;39.50;;;2.30;94.90;;;;;;4845786;29;20049;-83
2020/12/09 11:43:57;;;;;;;204.67;43.90;;;2.20;94.80;;;;;;4886539;29;20047;-82
2020/12/09 11:46:25;;;;;;;162.87;39.77;;;2.20;94.80;;;;;;4870977;29;20037;-85
2020/12/09 11:49:01;;;;;;;116.30;37.30;;;2.10;94.90;;;;;;4882097;29;20056;-87
2020/12/09 11:51:30;;;;;;;79.43;33.90;;;2.10;95.00;;;;;;4868200;29;20048;-87
2020/12/09 11:53:57;;;;;;;133.00;35.90;;;2.10;95.10;;;;;;4864867;29;20048;-85
2020/12/09 11:56:26;;;;;;;95.17;32.33;;;2.10;95.20;;;;;;4863640;29;20045;-84
2020/12/09 11:58:54;;;;;;;196.30;38.10;;;2.20;95.20;;;;;;4834010;29;20060;-84
2020/12/09 12:01:21;;;;;;;188.57;40.30;;;2.20;95.20;;;;;;4864524;29;20049;-83
2020/12/09 12:03:48;;;;;;;132.37;38.77;;;2.20;95.00;;;;;;4876684;29;20060;-83
2020/12/09 12:06:28;;;;;;;107.73;34.07;;;2.10;95.00;;;;;;4865684;29;20045;-83
2020/12/09 12:08:55;;;;;;;145.80;38.03;;;2.10;95.10;;;;;;4849333;29;20044;-83
2020/12/09 12:11:23;;;;;;;174.50;41.23;;;2.10;95.10;;;;;;4853020;29;20033;-82
2020/12/09 12:13:51;;;;;;;159.80;38.30;;;2.10;95.00;;;;;;4863063;29;20647;-83
2020/12/09 12:16:26;;;;;;;249.23;40.50;;;2.00;95.00;;;;;;4859258;29;20410;-83
2020/12/09 12:18:53;;;;;;;101.60;32.03;;;2.00;95.00;;;;;;4862466;29;20388;-84
2020/12/09 12:21:24;;;;;;;112.47;37.33;;;2.00;95.20;;;;;;4875192;29;20057;-83
2020/12/09 12:23:51;;;;;;;107.50;36.73;;;2.10;95.20;;;;;;4848126;29;20044;-84
2020/12/09 12:26:21;;;;;;;117.80;37.83;;;2.20;95.30;;;;;;4832428;29;20504;-83
2020/12/09 12:28:51;;;;;;;128.90;38.37;;;2.20;95.30;;;;;;4878201;29;20072;-84
2020/12/09 12:31:19;;;;;;;144.53;41.37;;;2.30;95.20;;;;;;4859074;29;20527;-84
2020/12/09 12:33:46;;;;;;;139.40;42.00;;;2.30;95.20;;;;;;4849183;29;20045;-84
2020/12/09 12:36:13;;;;;;;121.70;38.63;;;2.40;95.20;;;;;;4864588;29;20055;-84
2020/12/09 12:38:44;;;;;;;132.43;41.73;;;2.30;95.20;;;;;;4853369;29;20029;-86
2020/12/09 12:41:10;;;;;;;153.13;42.50;;;2.40;95.20;;;;;;4869510;29;20501;-88
2020/12/09 12:43:41;;;;;;;142.10;43.87;;;2.40;95.20;;;;;;4870280;29;20036;-82